sensor_id;sensor_type;location;lat;lon;timestamp;pressure;altitude;pressure_sealevel;temperature;humidity
72612;BME280;60655;52.182;4.474;2022-07-24T00:01:37;101958.50;;;20.05;66.42
72612;BME280;60655;52.182;4.474;2022-07-24T00:03:38;101963.66;;;20.06;66.12
72612;BME280;60655;52.182;4.474;2022-07-24T00:05:39;101950.91;;;20.02;66.18
72612;BME280;60655;52.182;4.474;2022-07-24T00:07:40;101952.34;;;20.09;65.95
72612;BME280;60655;52.182;4.474;2022-07-24T00:09:41;101946.78;;;20.16;65.36
72612;BME280;60655;52.182;4.474;2022-07-24T00:11:43;101946.53;;;20.22;65.29
72612;BME280;60655;52.182;4.474;2022-07-24T00:13:44;101940.06;;;20.18;65.30
72612;BME280;60655;52.182;4.474;2022-07-24T00:15:45;101943.31;;;20.20;65.28
72612;BME280;60655;52.182;4.474;2022-07-24T00:17:47;101946.00;;;20.20;65.26
72612;BME280;60655;52.182;4.474;2022-07-24T00:19:48;101949.72;;;20.14;65.53
72612;BME280;60655;52.182;4.474;2022-07-24T00:21:49;101943.88;;;20.01;66.10
72612;BME280;60655;52.182;4.474;2022-07-24T00:23:50;101945.13;;;19.93;66.56
72612;BME280;60655;52.182;4.474;2022-07-24T00:25:51;101951.16;;;20.00;66.11
72612;BME280;60655;52.182;4.474;2022-07-24T00:27:52;101954.03;;;19.94;66.36
72612;BME280;60655;52.182;4.474;2022-07-24T00:29:53;101953.75;;;19.90;66.56
72612;BME280;60655;52.182;4.474;2022-07-24T00:31:54;101948.63;;;19.94;66.20
72612;BME280;60655;52.182;4.474;2022-07-24T00:33:55;101950.72;;;19.86;66.52
72612;BME280;60655;52.182;4.474;2022-07-24T00:35:56;101957.38;;;19.79;66.98
72612;BME280;60655;52.182;4.474;2022-07-24T00:37:57;101952.06;;;19.84;66.81
72612;BME280;60655;52.182;4.474;2022-07-24T00:39:58;101951.63;;;19.92;66.18
72612;BME280;60655;52.182;4.474;2022-07-24T00:41:59;101953.53;;;19.97;66.17
72612;BME280;60655;52.182;4.474;2022-07-24T00:44:09;101948.53;;;20.05;66.17
72612;BME280;60655;52.182;4.474;2022-07-24T00:46:10;101948.91;;;19.92;66.55
72612;BME280;60655;52.182;4.474;2022-07-24T00:48:11;101943.47;;;19.87;66.82
72612;BME280;60655;52.182;4.474;2022-07-24T00:50:12;101944.63;;;19.96;66.27
72612;BME280;60655;52.182;4.474;2022-07-24T00:52:13;101946.75;;;19.94;66.54
72612;BME280;60655;52.182;4.474;2022-07-24T00:54:16;101951.63;;;19.92;66.56
72612;BME280;60655;52.182;4.474;2022-07-24T00:56:17;101946.34;;;19.80;66.88
72612;BME280;60655;52.182;4.474;2022-07-24T00:58:18;101947.97;;;19.81;67.08
72612;BME280;60655;52.182;4.474;2022-07-24T01:00:20;101942.50;;;19.76;67.18
72612;BME280;60655;52.182;4.474;2022-07-24T01:02:22;101945.19;;;19.76;67.34
72612;BME280;60655;52.182;4.474;2022-07-24T01:04:23;101938.75;;;19.77;67.34
72612;BME280;60655;52.182;4.474;2022-07-24T01:06:24;101936.44;;;19.86;66.90
72612;BME280;60655;52.182;4.474;2022-07-24T01:08:25;101940.19;;;19.85;67.12
72612;BME280;60655;52.182;4.474;2022-07-24T01:10:26;101935.31;;;19.82;67.12
72612;BME280;60655;52.182;4.474;2022-07-24T01:12:27;101929.09;;;19.81;67.34
72612;BME280;60655;52.182;4.474;2022-07-24T01:14:33;101931.72;;;19.76;67.50
72612;BME280;60655;52.182;4.474;2022-07-24T01:16:35;101915.34;;;19.83;66.56
72612;BME280;60655;52.182;4.474;2022-07-24T01:18:36;101923.03;;;19.91;66.45
72612;BME280;60655;52.182;4.474;2022-07-24T01:20:37;101932.75;;;19.92;66.57
72612;BME280;60655;52.182;4.474;2022-07-24T01:22:39;101924.09;;;19.90;66.77
72612;BME280;60655;52.182;4.474;2022-07-24T01:24:40;101920.75;;;19.83;67.01
72612;BME280;60655;52.182;4.474;2022-07-24T01:26:41;101919.19;;;19.87;66.73
72612;BME280;60655;52.182;4.474;2022-07-24T01:28:42;101919.63;;;19.79;67.25
72612;BME280;60655;52.182;4.474;2022-07-24T01:30:43;101918.00;;;19.78;67.33
72612;BME280;60655;52.182;4.474;2022-07-24T01:32:44;101919.31;;;19.75;67.22
72612;BME280;60655;52.182;4.474;2022-07-24T01:34:45;101924.38;;;19.72;67.50
72612;BME280;60655;52.182;4.474;2022-07-24T01:36:46;101922.69;;;19.66;67.47
72612;BME280;60655;52.182;4.474;2022-07-24T01:38:47;101920.44;;;19.58;67.71
72612;BME280;60655;52.182;4.474;2022-07-24T01:40:48;101916.78;;;19.69;67.25
72612;BME280;60655;52.182;4.474;2022-07-24T01:42:49;101922.91;;;19.64;67.15
72612;BME280;60655;52.182;4.474;2022-07-24T01:44:51;101922.09;;;19.64;67.37
72612;BME280;60655;52.182;4.474;2022-07-24T01:46:52;101925.69;;;19.69;67.13
72612;BME280;60655;52.182;4.474;2022-07-24T01:48:53;101917.25;;;19.61;67.40
72612;BME280;60655;52.182;4.474;2022-07-24T01:50:54;101907.06;;;19.68;66.96
72612;BME280;60655;52.182;4.474;2022-07-24T01:52:57;101917.50;;;19.59;67.32
72612;BME280;60655;52.182;4.474;2022-07-24T01:54:58;101906.22;;;19.62;67.16
72612;BME280;60655;52.182;4.474;2022-07-24T01:56:59;101904.81;;;19.60;67.37
72612;BME280;60655;52.182;4.474;2022-07-24T01:59:00;101910.00;;;19.66;66.96
72612;BME280;60655;52.182;4.474;2022-07-24T02:01:01;101905.44;;;19.67;66.91
72612;BME280;60655;52.182;4.474;2022-07-24T02:03:02;101896.53;;;19.66;66.87
72612;BME280;60655;52.182;4.474;2022-07-24T02:05:04;101901.75;;;19.73;66.58
72612;BME280;60655;52.182;4.474;2022-07-24T02:07:05;101903.38;;;19.74;66.53
72612;BME280;60655;52.182;4.474;2022-07-24T02:09:06;101895.78;;;19.71;66.63
72612;BME280;60655;52.182;4.474;2022-07-24T02:11:07;101893.66;;;19.73;66.71
72612;BME280;60655;52.182;4.474;2022-07-24T02:13:08;101896.59;;;19.71;66.81
72612;BME280;60655;52.182;4.474;2022-07-24T02:15:09;101888.50;;;19.71;66.84
72612;BME280;60655;52.182;4.474;2022-07-24T02:17:10;101886.00;;;19.65;67.13
72612;BME280;60655;52.182;4.474;2022-07-24T02:19:11;101882.75;;;19.63;67.33
72612;BME280;60655;52.182;4.474;2022-07-24T02:21:12;101878.47;;;19.67;67.02
72612;BME280;60655;52.182;4.474;2022-07-24T02:23:13;101882.81;;;19.68;67.06
72612;BME280;60655;52.182;4.474;2022-07-24T02:25:18;101876.84;;;19.66;67.33
72612;BME280;60655;52.182;4.474;2022-07-24T02:27:19;101877.88;;;19.60;67.66
72612;BME280;60655;52.182;4.474;2022-07-24T02:29:20;101877.22;;;19.52;68.04
72612;BME280;60655;52.182;4.474;2022-07-24T02:31:21;101889.47;;;19.60;67.75
72612;BME280;60655;52.182;4.474;2022-07-24T02:33:22;101888.91;;;19.58;67.72
72612;BME280;60655;52.182;4.474;2022-07-24T02:35:24;101889.41;;;19.55;68.00
72612;BME280;60655;52.182;4.474;2022-07-24T02:37:25;101878.88;;;19.53;68.16
72612;BME280;60655;52.182;4.474;2022-07-24T02:39:26;101883.44;;;19.36;68.99
72612;BME280;60655;52.182;4.474;2022-07-24T02:41:26;101875.75;;;19.45;68.60
72612;BME280;60655;52.182;4.474;2022-07-24T02:43:27;101878.06;;;19.53;68.38
72612;BME280;60655;52.182;4.474;2022-07-24T02:45:28;101872.09;;;19.51;68.39
72612;BME280;60655;52.182;4.474;2022-07-24T02:47:29;101868.97;;;19.59;68.02
72612;BME280;60655;52.182;4.474;2022-07-24T02:49:30;101868.47;;;19.62;67.88
72612;BME280;60655;52.182;4.474;2022-07-24T02:51:31;101869.78;;;19.60;68.10
72612;BME280;60655;52.182;4.474;2022-07-24T02:53:32;101863.66;;;19.47;68.85
72612;BME280;60655;52.182;4.474;2022-07-24T02:55:33;101869.06;;;19.47;69.05
72612;BME280;60655;52.182;4.474;2022-07-24T02:57:34;101855.41;;;19.54;68.53
72612;BME280;60655;52.182;4.474;2022-07-24T02:59:35;101860.72;;;19.49;68.69
72612;BME280;60655;52.182;4.474;2022-07-24T03:01:36;101860.41;;;19.45;68.95
72612;BME280;60655;52.182;4.474;2022-07-24T03:03:37;101853.94;;;19.46;68.82
72612;BME280;60655;52.182;4.474;2022-07-24T03:05:38;101858.75;;;19.44;68.86
72612;BME280;60655;52.182;4.474;2022-07-24T03:07:39;101854.38;;;19.38;69.15
72612;BME280;60655;52.182;4.474;2022-07-24T03:09:40;101848.31;;;19.48;68.64
72612;BME280;60655;52.182;4.474;2022-07-24T03:11:41;101858.44;;;19.41;68.90
72612;BME280;60655;52.182;4.474;2022-07-24T03:13:42;101855.00;;;19.45;68.57
72612;BME280;60655;52.182;4.474;2022-07-24T03:15:43;101851.44;;;19.40;68.62
72612;BME280;60655;52.182;4.474;2022-07-24T03:17:56;101839.81;;;19.39;68.49
72612;BME280;60655;52.182;4.474;2022-07-24T03:19:57;101845.22;;;19.39;68.46
72612;BME280;60655;52.182;4.474;2022-07-24T03:21:58;101843.56;;;19.33;68.63
72612;BME280;60655;52.182;4.474;2022-07-24T03:23:59;101838.97;;;19.34;68.35
72612;BME280;60655;52.182;4.474;2022-07-24T03:26:00;101839.06;;;19.22;68.87
72612;BME280;60655;52.182;4.474;2022-07-24T03:28:01;101839.72;;;19.29;68.60
72612;BME280;60655;52.182;4.474;2022-07-24T03:30:04;101839.47;;;19.31;68.42
72612;BME280;60655;52.182;4.474;2022-07-24T03:32:05;101837.84;;;19.30;68.59
72612;BME280;60655;52.182;4.474;2022-07-24T03:34:06;101835.50;;;19.38;68.05
72612;BME280;60655;52.182;4.474;2022-07-24T03:36:07;101829.69;;;19.25;68.55
72612;BME280;60655;52.182;4.474;2022-07-24T03:38:09;101816.88;;;19.15;68.60
72612;BME280;60655;52.182;4.474;2022-07-24T03:40:10;101835.31;;;19.23;68.54
72612;BME280;60655;52.182;4.474;2022-07-24T03:42:11;101848.78;;;19.23;68.68
72612;BME280;60655;52.182;4.474;2022-07-24T03:44:12;101842.41;;;19.29;68.43
72612;BME280;60655;52.182;4.474;2022-07-24T03:46:13;101836.94;;;19.24;68.46
72612;BME280;60655;52.182;4.474;2022-07-24T03:48:14;101838.25;;;19.21;68.66
72612;BME280;60655;52.182;4.474;2022-07-24T03:50:15;101840.63;;;19.18;68.77
72612;BME280;60655;52.182;4.474;2022-07-24T03:52:16;101842.66;;;19.28;68.57
72612;BME280;60655;52.182;4.474;2022-07-24T03:54:17;101837.53;;;19.26;68.44
72612;BME280;60655;52.182;4.474;2022-07-24T03:56:18;101836.72;;;19.09;69.21
72612;BME280;60655;52.182;4.474;2022-07-24T03:58:19;101842.28;;;19.19;68.81
72612;BME280;60655;52.182;4.474;2022-07-24T04:00:20;101833.03;;;19.15;68.99
72612;BME280;60655;52.182;4.474;2022-07-24T04:02:21;101839.00;;;19.17;68.82
72612;BME280;60655;52.182;4.474;2022-07-24T04:04:22;101832.41;;;19.08;69.25
72612;BME280;60655;52.182;4.474;2022-07-24T04:06:23;101822.59;;;19.18;68.77
72612;BME280;60655;52.182;4.474;2022-07-24T04:08:24;101827.72;;;19.20;68.68
72612;BME280;60655;52.182;4.474;2022-07-24T04:10:25;101826.66;;;19.21;68.54
72612;BME280;60655;52.182;4.474;2022-07-24T04:12:26;101827.00;;;19.25;68.43
72612;BME280;60655;52.182;4.474;2022-07-24T04:14:27;101826.59;;;19.16;68.77
72612;BME280;60655;52.182;4.474;2022-07-24T04:16:28;101828.78;;;19.19;68.63
72612;BME280;60655;52.182;4.474;2022-07-24T04:18:29;101823.66;;;19.17;68.57
72612;BME280;60655;52.182;4.474;2022-07-24T04:20:30;101834.19;;;19.19;68.56
72612;BME280;60655;52.182;4.474;2022-07-24T04:22:31;101831.81;;;19.22;68.43
72612;BME280;60655;52.182;4.474;2022-07-24T04:24:31;101827.66;;;19.15;68.68
72612;BME280;60655;52.182;4.474;2022-07-24T04:26:32;101833.50;;;19.29;68.20
72612;BME280;60655;52.182;4.474;2022-07-24T04:28:34;101831.97;;;19.16;68.75
72612;BME280;60655;52.182;4.474;2022-07-24T04:30:35;101831.56;;;19.24;68.25
72612;BME280;60655;52.182;4.474;2022-07-24T04:32:36;101825.22;;;19.35;68.00
72612;BME280;60655;52.182;4.474;2022-07-24T04:34:37;101819.34;;;19.16;69.20
72612;BME280;60655;52.182;4.474;2022-07-24T04:36:38;101825.59;;;19.22;68.85
72612;BME280;60655;52.182;4.474;2022-07-24T04:38:39;101827.09;;;19.35;68.21
72612;BME280;60655;52.182;4.474;2022-07-24T04:40:41;101831.19;;;19.37;68.09
72612;BME280;60655;52.182;4.474;2022-07-24T04:42:42;101829.00;;;19.34;68.37
72612;BME280;60655;52.182;4.474;2022-07-24T04:44:43;101827.06;;;19.30;68.57
72612;BME280;60655;52.182;4.474;2022-07-24T04:46:44;101833.50;;;19.29;68.56
72612;BME280;60655;52.182;4.474;2022-07-24T04:48:45;101840.03;;;19.33;68.14
72612;BME280;60655;52.182;4.474;2022-07-24T04:50:46;101844.84;;;19.31;68.55
72612;BME280;60655;52.182;4.474;2022-07-24T04:52:47;101848.94;;;19.33;68.14
72612;BME280;60655;52.182;4.474;2022-07-24T04:54:48;101849.47;;;19.35;68.27
72612;BME280;60655;52.182;4.474;2022-07-24T04:56:49;101842.97;;;19.31;68.83
72612;BME280;60655;52.182;4.474;2022-07-24T04:58:50;101851.00;;;19.26;69.05
72612;BME280;60655;52.182;4.474;2022-07-24T05:00:51;101844.28;;;19.29;69.09
72612;BME280;60655;52.182;4.474;2022-07-24T05:02:52;101846.25;;;19.33;68.87
72612;BME280;60655;52.182;4.474;2022-07-24T05:04:53;101849.69;;;19.29;68.86
72612;BME280;60655;52.182;4.474;2022-07-24T05:06:54;101841.16;;;19.37;68.69
72612;BME280;60655;52.182;4.474;2022-07-24T05:08:55;101847.97;;;19.44;68.43
72612;BME280;60655;52.182;4.474;2022-07-24T05:10:55;101850.28;;;19.36;69.02
72612;BME280;60655;52.182;4.474;2022-07-24T05:12:56;101844.16;;;19.40;68.98
72612;BME280;60655;52.182;4.474;2022-07-24T05:14:57;101849.53;;;19.40;69.06
72612;BME280;60655;52.182;4.474;2022-07-24T05:16:58;101853.56;;;19.38;69.49
72612;BME280;60655;52.182;4.474;2022-07-24T05:18:59;101849.22;;;19.37;69.36
72612;BME280;60655;52.182;4.474;2022-07-24T05:21:00;101855.75;;;19.41;69.16
72612;BME280;60655;52.182;4.474;2022-07-24T05:23:01;101858.63;;;19.51;68.62
72612;BME280;60655;52.182;4.474;2022-07-24T05:25:02;101860.97;;;19.47;68.84
72612;BME280;60655;52.182;4.474;2022-07-24T05:27:03;101862.75;;;19.59;68.40
72612;BME280;60655;52.182;4.474;2022-07-24T05:29:05;101863.13;;;19.67;68.23
72612;BME280;60655;52.182;4.474;2022-07-24T05:31:07;101861.06;;;19.74;68.00
72612;BME280;60655;52.182;4.474;2022-07-24T05:33:09;101860.94;;;19.86;67.13
72612;BME280;60655;52.182;4.474;2022-07-24T05:35:09;101863.16;;;19.94;67.32
72612;BME280;60655;52.182;4.474;2022-07-24T05:37:10;101862.09;;;19.95;66.97
72612;BME280;60655;52.182;4.474;2022-07-24T05:39:11;101859.09;;;19.92;67.32
72612;BME280;60655;52.182;4.474;2022-07-24T05:41:12;101855.38;;;19.98;66.93
72612;BME280;60655;52.182;4.474;2022-07-24T05:43:14;101860.50;;;19.99;66.91
72612;BME280;60655;52.182;4.474;2022-07-24T05:45:17;101850.28;;;20.01;66.83
72612;BME280;60655;52.182;4.474;2022-07-24T05:47:18;101844.44;;;20.09;66.11
72612;BME280;60655;52.182;4.474;2022-07-24T05:49:19;101849.06;;;20.14;65.87
72612;BME280;60655;52.182;4.474;2022-07-24T05:51:20;101858.75;;;20.10;66.43
72612;BME280;60655;52.182;4.474;2022-07-24T05:53:21;101856.56;;;20.07;66.95
72612;BME280;60655;52.182;4.474;2022-07-24T05:55:22;101856.88;;;20.10;66.66
72612;BME280;60655;52.182;4.474;2022-07-24T05:57:22;101857.41;;;20.12;66.59
72612;BME280;60655;52.182;4.474;2022-07-24T05:59:23;101853.09;;;20.11;66.30
72612;BME280;60655;52.182;4.474;2022-07-24T06:01:25;101855.03;;;20.16;65.75
72612;BME280;60655;52.182;4.474;2022-07-24T06:03:26;101859.09;;;20.18;65.63
72612;BME280;60655;52.182;4.474;2022-07-24T06:05:27;101855.84;;;20.16;65.73
72612;BME280;60655;52.182;4.474;2022-07-24T06:07:27;101858.81;;;20.15;65.83
72612;BME280;60655;52.182;4.474;2022-07-24T06:09:28;101865.88;;;20.21;65.58
72612;BME280;60655;52.182;4.474;2022-07-24T06:11:29;101864.78;;;20.22;65.31
72612;BME280;60655;52.182;4.474;2022-07-24T06:13:30;101861.56;;;20.20;65.62
72612;BME280;60655;52.182;4.474;2022-07-24T06:15:31;101861.25;;;20.16;65.48
72612;BME280;60655;52.182;4.474;2022-07-24T06:17:32;101859.94;;;20.24;65.65
72612;BME280;60655;52.182;4.474;2022-07-24T06:19:33;101856.44;;;20.23;65.38
72612;BME280;60655;52.182;4.474;2022-07-24T06:21:34;101862.09;;;20.22;65.29
72612;BME280;60655;52.182;4.474;2022-07-24T06:23:35;101858.97;;;20.35;65.16
72612;BME280;60655;52.182;4.474;2022-07-24T06:25:36;101859.94;;;20.51;64.83
72612;BME280;60655;52.182;4.474;2022-07-24T06:27:55;101862.75;;;20.61;64.83
72612;BME280;60655;52.182;4.474;2022-07-24T06:29:56;101852.34;;;20.80;64.02
72612;BME280;60655;52.182;4.474;2022-07-24T06:31:57;101847.47;;;20.77;63.83
72612;BME280;60655;52.182;4.474;2022-07-24T06:33:58;101854.03;;;20.91;63.42
72612;BME280;60655;52.182;4.474;2022-07-24T06:35:59;101855.38;;;20.88;63.65
72612;BME280;60655;52.182;4.474;2022-07-24T06:38:01;101853.97;;;20.76;63.56
72612;BME280;60655;52.182;4.474;2022-07-24T06:40:03;101866.03;;;20.68;63.88
72612;BME280;60655;52.182;4.474;2022-07-24T06:42:04;101857.84;;;20.58;64.45
72612;BME280;60655;52.182;4.474;2022-07-24T06:44:05;101858.47;;;20.65;64.17
72612;BME280;60655;52.182;4.474;2022-07-24T06:46:06;101863.94;;;20.75;63.40
72612;BME280;60655;52.182;4.474;2022-07-24T06:48:07;101863.59;;;20.67;64.19
72612;BME280;60655;52.182;4.474;2022-07-24T06:50:09;101864.88;;;20.59;64.61
72612;BME280;60655;52.182;4.474;2022-07-24T06:52:10;101871.84;;;20.50;65.91
72612;BME280;60655;52.182;4.474;2022-07-24T06:54:12;101867.06;;;20.62;64.73
72612;BME280;60655;52.182;4.474;2022-07-24T06:56:13;101865.41;;;20.56;65.38
72612;BME280;60655;52.182;4.474;2022-07-24T06:58:14;101856.41;;;20.77;64.58
72612;BME280;60655;52.182;4.474;2022-07-24T07:00:15;101858.28;;;20.82;64.26
72612;BME280;60655;52.182;4.474;2022-07-24T07:02:16;101863.44;;;20.78;64.35
72612;BME280;60655;52.182;4.474;2022-07-24T07:04:17;101845.06;;;20.80;64.34
72612;BME280;60655;52.182;4.474;2022-07-24T07:06:18;101845.66;;;20.87;63.93
72612;BME280;60655;52.182;4.474;2022-07-24T07:08:19;101851.66;;;20.95;64.53
72612;BME280;60655;52.182;4.474;2022-07-24T07:10:19;101845.75;;;21.03;64.24
72612;BME280;60655;52.182;4.474;2022-07-24T07:12:21;101844.16;;;21.07;64.57
72612;BME280;60655;52.182;4.474;2022-07-24T07:14:22;101849.19;;;21.30;63.10
72612;BME280;60655;52.182;4.474;2022-07-24T07:16:23;101851.34;;;21.28;63.81
72612;BME280;60655;52.182;4.474;2022-07-24T07:18:24;101848.13;;;21.41;63.23
72612;BME280;60655;52.182;4.474;2022-07-24T07:20:24;101850.88;;;21.51;62.77
72612;BME280;60655;52.182;4.474;2022-07-24T07:22:25;101852.56;;;21.63;62.46
72612;BME280;60655;52.182;4.474;2022-07-24T07:24:26;101853.09;;;21.60;62.35
72612;BME280;60655;52.182;4.474;2022-07-24T07:26:27;101853.88;;;21.55;61.84
72612;BME280;60655;52.182;4.474;2022-07-24T07:28:28;101846.06;;;21.59;62.39
72612;BME280;60655;52.182;4.474;2022-07-24T07:30:30;101862.03;;;21.65;61.62
72612;BME280;60655;52.182;4.474;2022-07-24T07:32:31;101848.22;;;21.67;61.74
72612;BME280;60655;52.182;4.474;2022-07-24T07:34:31;101849.84;;;21.68;61.72
72612;BME280;60655;52.182;4.474;2022-07-24T07:36:32;101853.13;;;21.75;60.81
72612;BME280;60655;52.182;4.474;2022-07-24T07:38:35;101852.06;;;21.76;60.77
72612;BME280;60655;52.182;4.474;2022-07-24T07:40:38;101846.44;;;21.93;60.42
72612;BME280;60655;52.182;4.474;2022-07-24T07:42:39;101847.56;;;22.02;59.90
72612;BME280;60655;52.182;4.474;2022-07-24T07:44:40;101842.97;;;22.07;60.37
72612;BME280;60655;52.182;4.474;2022-07-24T07:46:41;101840.25;;;22.02;59.83
72612;BME280;60655;52.182;4.474;2022-07-24T07:48:42;101839.75;;;22.15;60.24
72612;BME280;60655;52.182;4.474;2022-07-24T07:50:43;101839.19;;;22.13;59.92
72612;BME280;60655;52.182;4.474;2022-07-24T07:52:44;101837.03;;;22.26;59.81
72612;BME280;60655;52.182;4.474;2022-07-24T07:54:45;101839.19;;;22.34;59.68
72612;BME280;60655;52.182;4.474;2022-07-24T07:56:46;101828.63;;;22.52;58.14
72612;BME280;60655;52.182;4.474;2022-07-24T07:58:47;101822.41;;;22.57;57.85
72612;BME280;60655;52.182;4.474;2022-07-24T08:00:49;101827.00;;;22.62;58.48
72612;BME280;60655;52.182;4.474;2022-07-24T08:02:50;101836.22;;;22.61;58.97
72612;BME280;60655;52.182;4.474;2022-07-24T08:04:51;101840.81;;;22.65;58.71
72612;BME280;60655;52.182;4.474;2022-07-24T08:06:51;101835.13;;;22.67;57.56
72612;BME280;60655;52.182;4.474;2022-07-24T08:08:52;101835.41;;;22.50;59.15
72612;BME280;60655;52.182;4.474;2022-07-24T08:10:53;101841.91;;;22.49;59.26
72612;BME280;60655;52.182;4.474;2022-07-24T08:12:54;101834.34;;;22.41;59.24
72612;BME280;60655;52.182;4.474;2022-07-24T08:14:55;101834.34;;;22.51;59.19
72612;BME280;60655;52.182;4.474;2022-07-24T08:16:56;101840.00;;;22.54;59.44
72612;BME280;60655;52.182;4.474;2022-07-24T08:18:57;101822.94;;;22.59;59.23
72612;BME280;60655;52.182;4.474;2022-07-24T08:20:58;101832.97;;;22.84;57.47
72612;BME280;60655;52.182;4.474;2022-07-24T08:22:59;101832.16;;;22.68;58.07
72612;BME280;60655;52.182;4.474;2022-07-24T08:25:00;101836.75;;;22.68;58.55
72612;BME280;60655;52.182;4.474;2022-07-24T08:27:01;101830.25;;;22.64;58.69
72612;BME280;60655;52.182;4.474;2022-07-24T08:29:02;101840.28;;;22.58;58.03
72612;BME280;60655;52.182;4.474;2022-07-24T08:31:03;101828.09;;;22.76;57.77
72612;BME280;60655;52.182;4.474;2022-07-24T08:33:04;101843.25;;;22.72;58.15
72612;BME280;60655;52.182;4.474;2022-07-24T08:35:06;101849.22;;;22.58;57.93
72612;BME280;60655;52.182;4.474;2022-07-24T08:37:07;101833.78;;;22.59;58.04
72612;BME280;60655;52.182;4.474;2022-07-24T08:39:08;101847.84;;;22.81;57.25
72612;BME280;60655;52.182;4.474;2022-07-24T08:41:09;101825.38;;;22.86;57.66
72612;BME280;60655;52.182;4.474;2022-07-24T08:43:10;101840.19;;;23.19;56.29
72612;BME280;60655;52.182;4.474;2022-07-24T08:45:11;101828.25;;;23.20;55.54
72612;BME280;60655;52.182;4.474;2022-07-24T08:47:14;101829.63;;;23.12;56.36
72612;BME280;60655;52.182;4.474;2022-07-24T08:49:15;101827.72;;;23.23;55.68
72612;BME280;60655;52.182;4.474;2022-07-24T08:51:17;101820.41;;;23.18;55.39
72612;BME280;60655;52.182;4.474;2022-07-24T08:53:22;101828.22;;;23.35;55.10
72612;BME280;60655;52.182;4.474;2022-07-24T08:55:23;101820.91;;;23.36;54.81
72612;BME280;60655;52.182;4.474;2022-07-24T08:57:24;101814.59;;;23.45;54.65
72612;BME280;60655;52.182;4.474;2022-07-24T08:59:26;101817.88;;;23.42;54.75
72612;BME280;60655;52.182;4.474;2022-07-24T09:01:27;101816.19;;;23.62;53.26
72612;BME280;60655;52.182;4.474;2022-07-24T09:03:40;101814.56;;;23.61;53.59
72612;BME280;60655;52.182;4.474;2022-07-24T09:05:58;101819.09;;;23.70;53.61
72612;BME280;60655;52.182;4.474;2022-07-24T09:08:10;101812.31;;;23.73;53.44
72612;BME280;60655;52.182;4.474;2022-07-24T09:10:13;101822.34;;;23.72;53.63
72612;BME280;60655;52.182;4.474;2022-07-24T09:12:17;101808.47;;;23.84;53.17
72612;BME280;60655;52.182;4.474;2022-07-24T09:14:18;101819.03;;;23.85;52.81
72612;BME280;60655;52.182;4.474;2022-07-24T09:16:32;101811.88;;;24.00;53.57
72612;BME280;60655;52.182;4.474;2022-07-24T09:18:34;101805.06;;;24.02;53.01
72612;BME280;60655;52.182;4.474;2022-07-24T09:20:37;101799.47;;;24.28;51.81
72612;BME280;60655;52.182;4.474;2022-07-24T09:22:40;101795.72;;;24.18;52.01
72612;BME280;60655;52.182;4.474;2022-07-24T09:24:42;101802.72;;;24.30;52.66
72612;BME280;60655;52.182;4.474;2022-07-24T09:26:52;101804.91;;;24.28;52.03
72612;BME280;60655;52.182;4.474;2022-07-24T09:28:54;101800.75;;;24.35;51.89
72612;BME280;60655;52.182;4.474;2022-07-24T09:31:01;101807.97;;;24.50;52.07
72612;BME280;60655;52.182;4.474;2022-07-24T09:33:21;101800.34;;;24.52;51.79
72612;BME280;60655;52.182;4.474;2022-07-24T09:35:36;101804.09;;;24.56;51.33
72612;BME280;60655;52.182;4.474;2022-07-24T09:37:38;101798.09;;;24.59;51.44
72612;BME280;60655;52.182;4.474;2022-07-24T09:39:39;101797.16;;;24.74;50.04
72612;BME280;60655;52.182;4.474;2022-07-24T09:41:50;101801.34;;;24.61;51.71
72612;BME280;60655;52.182;4.474;2022-07-24T09:43:57;101802.16;;;24.62;51.73
72612;BME280;60655;52.182;4.474;2022-07-24T09:46:09;101804.69;;;24.82;50.71
72612;BME280;60655;52.182;4.474;2022-07-24T09:48:10;101809.06;;;24.78;51.18
72612;BME280;60655;52.182;4.474;2022-07-24T09:50:16;101809.13;;;24.73;51.60
72612;BME280;60655;52.182;4.474;2022-07-24T09:52:19;101803.91;;;24.76;51.00
72612;BME280;60655;52.182;4.474;2022-07-24T09:54:30;101798.00;;;24.93;50.17
72612;BME280;60655;52.182;4.474;2022-07-24T09:56:31;101797.47;;;24.96;50.40
72612;BME280;60655;52.182;4.474;2022-07-24T09:58:55;101795.97;;;25.09;49.85
72612;BME280;60655;52.182;4.474;2022-07-24T10:00:58;101796.31;;;25.02;50.05
72612;BME280;60655;52.182;4.474;2022-07-24T10:03:04;101793.25;;;25.09;49.74
72612;BME280;60655;52.182;4.474;2022-07-24T10:05:07;101795.59;;;25.15;49.35
72612;BME280;60655;52.182;4.474;2022-07-24T10:07:11;101788.47;;;25.19;49.37
72612;BME280;60655;52.182;4.474;2022-07-24T10:09:12;101807.75;;;25.23;49.39
72612;BME280;60655;52.182;4.474;2022-07-24T10:11:14;101793.56;;;25.26;49.33
72612;BME280;60655;52.182;4.474;2022-07-24T10:13:16;101791.72;;;25.21;49.16
72612;BME280;60655;52.182;4.474;2022-07-24T10:15:17;101796.81;;;25.28;48.36
72612;BME280;60655;52.182;4.474;2022-07-24T10:17:18;101790.34;;;25.43;48.06
72612;BME280;60655;52.182;4.474;2022-07-24T10:19:27;101782.19;;;25.43;49.28
72612;BME280;60655;52.182;4.474;2022-07-24T10:21:36;101790.22;;;25.53;48.95
72612;BME280;60655;52.182;4.474;2022-07-24T10:26:12;101779.41;;;25.48;48.19
72612;BME280;60655;52.182;4.474;2022-07-24T10:28:40;101789.44;;;25.71;47.51
72612;BME280;60655;52.182;4.474;2022-07-24T10:30:41;101783.28;;;25.66;47.14
72612;BME280;60655;52.182;4.474;2022-07-24T10:32:45;101783.03;;;25.81;46.32
72612;BME280;60655;52.182;4.474;2022-07-24T10:34:50;101779.25;;;25.63;47.54
72612;BME280;60655;52.182;4.474;2022-07-24T10:39:09;101778.25;;;25.73;45.86
72612;BME280;60655;52.182;4.474;2022-07-24T10:41:24;101781.22;;;25.76;47.31
72612;BME280;60655;52.182;4.474;2022-07-24T10:43:26;101775.31;;;25.88;46.56